Time;durP1;ratioP1;P1;durP2;ratioP2;P2;SDS_P1;SDS_P2;PMS_P1;PMS_P2;Temp;Humidity;BMP_temperature;BMP_pressure;BME280_temperature;BME280_humidity;BME280_pressure;Samples;Min_cycle;Max_cycle;Signal;HPM_P1;HPM_P2
2023/04/24 00:00:24;;;;;;;;;;;;;;;-144.99;100.00;52293.19;4967379;28;20359;-71
2023/04/24 00:02:51;;;;;;;;;;;;;;;-144.99;100.00;52289.13;4962791;28;20280;-72
2023/04/24 00:05:18;;;;;;;;;;;;;;;-144.99;100.00;52276.88;4967029;28;19993;-71
2023/04/24 00:07:45;;;;;;;;;;;;;;;-144.99;100.00;52272.81;4967687;28;20521;-71
2023/04/24 00:10:12;;;;;;;;;;;;;;;-144.99;100.00;52295.22;4968943;28;20375;-68
2023/04/24 00:12:40;;;;;;;;;;;;;;;-144.99;100.00;52262.63;4961464;28;20208;-64
2023/04/24 00:15:09;;;;;;;;;;;;;;;-144.99;100.00;52317.66;4971376;28;19953;-62
2023/04/24 00:17:36;;;;;;;;;;;;;;;-144.99;100.00;52280.97;4961028;28;20443;-66
2023/04/24 00:20:04;;;;;;;;;;;;;;;-144.99;100.00;52289.13;4625437;28;10000455;-67
2023/04/24 00:22:31;;;;;;;;;;;;;;;-144.99;100.00;52285.03;4966189;28;19930;-67
2023/04/24 00:24:57;;;;;;;;;;;;;;;-144.99;100.00;52329.88;4968131;28;19980;-70
2023/04/24 00:27:25;;;;;;;;;;;;;;;-144.99;100.00;52287.06;4961795;28;19978;-70
2023/04/24 00:29:52;;;;;;;;;;;;;;;-144.99;100.00;52285.03;4974157;28;19934;-70
2023/04/24 00:32:20;;;;;;;;;;;;;;;-144.99;100.00;52260.56;4975274;28;19926;-69
2023/04/24 00:34:46;;;;;;;;;;;;;;;-144.99;100.00;52270.78;4976795;28;20447;-69
2023/04/24 00:37:13;;;;;;;;;;;;;;;-144.99;100.00;52293.19;4977862;28;20220;-70
2023/04/24 00:39:39;;;;;;;;;;;;;;;-144.99;100.00;52262.63;4980774;28;19926;-69
2023/04/24 00:42:06;;;;;;;;;;;;;;;-144.99;100.00;52276.88;4978168;28;19973;-69
2023/04/24 00:44:33;;;;;;;;;;;;;;;-144.99;100.00;52338.03;4981469;28;19950;-69
2023/04/24 00:47:00;;;;;;;;;;;;;;;-144.99;100.00;52256.50;4976920;28;19934;-65
2023/04/24 00:49:28;;;;;;;;;;;;;;;-144.99;100.00;52285.03;4974541;28;19938;-68
2023/04/24 00:51:55;;;;;;;;;;;;;;;-144.99;100.00;52254.47;4972372;28;19934;-68
2023/04/24 00:54:21;;;;;;;;;;;;;;;-144.99;100.00;52268.72;4975419;28;20001;-65
2023/04/24 00:56:48;;;;;;;;;;;;;;;-144.99;100.00;52276.88;4974413;28;19989;-67
2023/04/24 00:59:16;;;;;;;;;;;;;;;-144.99;100.00;52266.69;4972681;28;19961;-68
2023/04/24 01:01:43;;;;;;;;;;;;;;;-144.99;100.00;52311.53;4965953;28;19927;-66
2023/04/24 01:04:11;;;;;;;;;;;;;;;-144.99;100.00;52297.25;4965147;28;19930;-65
2023/04/24 01:06:40;;;;;;;;;;;;;;;-144.99;100.00;52289.13;4972852;28;19988;-67
2023/04/24 01:09:08;;;;;;;;;;;;;;;-144.99;100.00;52285.03;4973288;28;19969;-66
2023/04/24 01:11:35;;;;;;;;;;;;;;;-144.99;100.00;52278.91;4963787;28;20384;-69
2023/04/24 01:14:02;;;;;;;;;;;;;;;-144.99;100.00;52291.16;4971931;28;19977;-68
2023/04/24 01:16:28;;;;;;;;;;;;;;;-144.99;100.00;52295.22;4970982;28;19933;-66
2023/04/24 01:18:55;;;;;;;;;;;;;;;-144.99;100.00;52272.81;4975259;28;19941;-66
2023/04/24 01:21:22;;;;;;;;;;;;;;;-144.99;100.00;52362.50;4971868;28;20384;-66
2023/04/24 01:23:50;;;;;;;;;;;;;;;-144.99;100.00;52289.13;4972032;28;19926;-67
2023/04/24 01:26:19;;;;;;;;;;;;;;;-144.99;100.00;52254.47;4970618;28;19930;-67
2023/04/24 01:28:46;;;;;;;;;;;;;;;-144.99;100.00;52264.66;4965465;28;19999;-67
2023/04/24 01:31:13;;;;;;;;;;;;;;;-144.99;100.00;52313.56;4966851;28;19926;-67
2023/04/24 01:33:39;;;;;;;;;;;;;;;-144.99;100.00;52301.34;4966883;28;19993;-67
2023/04/24 01:36:07;;;;;;;;;;;;;;;-144.99;100.00;52297.25;4968057;28;19926;-67
2023/04/24 01:38:34;;;;;;;;;;;;;;;-144.99;100.00;52260.56;4972113;28;19989;-66
2023/04/24 01:41:02;;;;;;;;;;;;;;;-144.99;100.00;52268.72;4972939;28;19937;-68
2023/04/24 01:43:28;;;;;;;;;;;;;;;-144.99;100.00;52297.25;4974122;28;19973;-68
2023/04/24 01:45:55;;;;;;;;;;;;;;;-144.99;100.00;52301.34;4971802;28;19942;-67
2023/04/24 01:48:22;;;;;;;;;;;;;;;-144.99;100.00;52313.56;4972840;28;19937;-67
2023/04/24 01:50:48;;;;;;;;;;;;;;;-144.99;100.00;52280.97;4972882;28;19986;-68
2023/04/24 01:53:15;;;;;;;;;;;;;;;-144.99;100.00;52309.50;4970572;28;19930;-69
2023/04/24 01:55:42;;;;;;;;;;;;;;;-144.99;100.00;52305.41;4970662;28;20372;-68
2023/04/24 01:58:10;;;;;;;;;;;;;;;-144.99;100.00;52280.97;4969297;28;20017;-68
2023/04/24 02:00:36;;;;;;;;;;;;;;;-144.99;100.00;52321.72;4966433;28;19961;-68
2023/04/24 02:03:03;;;;;;;;;;;;;;;-144.99;100.00;52260.56;4969350;28;19981;-68
2023/04/24 02:05:29;;;;;;;;;;;;;;;-144.99;100.00;52285.03;4966473;28;19952;-67
2023/04/24 02:07:56;;;;;;;;;;;;;;;-144.99;100.00;52289.13;4972594;28;19929;-68
2023/04/24 02:10:22;;;;;;;;;;;;;;;-144.99;100.00;52264.66;4971371;28;19980;-68
2023/04/24 02:12:49;;;;;;;;;;;;;;;-144.99;100.00;52309.50;4973131;28;20249;-68
2023/04/24 02:15:17;;;;;;;;;;;;;;;-144.99;100.00;52268.72;4973749;28;19926;-68
2023/04/24 02:17:44;;;;;;;;;;;;;;;-144.99;100.00;52313.56;4972878;28;19964;-68
2023/04/24 02:20:11;;;;;;;;;;;;;;;-144.99;100.00;52287.06;4973896;28;20281;-69
2023/04/24 02:22:37;;;;;;;;;;;;;;;-144.99;100.00;52297.25;4971951;28;19981;-69
2023/04/24 02:25:04;;;;;;;;;;;;;;;-144.99;100.00;52301.34;4972357;28;20009;-70
2023/04/24 02:27:31;;;;;;;;;;;;;;;-144.99;100.00;52272.81;4963851;28;19930;-73
2023/04/24 02:29:58;;;;;;;;;;;;;;;-144.99;100.00;52301.34;4964368;28;19979;-73
2023/04/24 02:32:26;;;;;;;;;;;;;;;-144.99;100.00;52280.97;4972592;28;19930;-73
2023/04/24 02:34:52;;;;;;;;;;;;;;;-144.99;100.00;52309.50;4967223;28;20451;-71
2023/04/24 02:37:19;;;;;;;;;;;;;;;-144.99;100.00;52301.34;4975183;28;19926;-72
2023/04/24 02:39:45;;;;;;;;;;;;;;;-144.99;100.00;52305.41;4972938;28;20458;-74
2023/04/24 02:42:12;;;;;;;;;;;;;;;-144.99;100.00;52278.91;4971412;28;19930;-75
2023/04/24 02:44:38;;;;;;;;;;;;;;;-144.99;100.00;52291.16;4973236;28;19930;-69
2023/04/24 02:47:05;;;;;;;;;;;;;;;-144.99;100.00;52276.88;4973266;28;19934;-68
2023/04/24 02:49:33;;;;;;;;;;;;;;;-144.99;100.00;52289.13;4973109;28;20012;-72
2023/04/24 02:51:59;;;;;;;;;;;;;;;-144.99;100.00;52305.41;4979558;23;19941;-75
2023/04/24 02:54:26;;;;;;;;;;;;;;;-144.99;100.00;52321.72;4971038;28;20020;-75
2023/04/24 02:56:52;;;;;;;;;;;;;;;-144.99;100.00;52305.41;4972007;28;20396;-76
2023/04/24 02:59:19;;;;;;;;;;;;;;;-144.99;100.00;52293.19;4973309;28;19948;-78
2023/04/24 03:01:45;;;;;;;;;;;;;;;-144.99;100.00;52305.41;4974975;28;19933;-76
2023/04/24 03:04:12;;;;;;;;;;;;;;;-144.99;100.00;52317.66;4975578;28;19966;-75
2023/04/24 03:06:40;;;;;;;;;;;;;;;-144.99;100.00;52287.06;4995306;28;19961;-78
2023/04/24 03:09:06;;;;;;;;;;;;;;;-144.99;100.00;52317.66;4986464;28;19926;-74
2023/04/24 03:11:33;;;;;;;;;;;;;;;-144.99;100.00;52283.00;4971992;28;20444;-74
2023/04/24 03:13:59;;;;;;;;;;;;;;;-144.99;100.00;52315.59;4967233;28;20416;-74
2023/04/24 03:16:26;;;;;;;;;;;;;;;-144.99;99.97;52295.22;4976162;28;20401;-74
2023/04/24 03:18:52;;;;;;;;;;;;;;;-144.99;99.08;52313.56;4970889;28;19926;-74
2023/04/24 03:21:19;;;;;;;;;;;;;;;-144.99;99.57;52327.84;4974776;28;19989;-74
2023/04/24 03:23:47;;;;;;;;;;;;;;;-144.99;99.53;52317.66;4969889;28;20366;-74
2023/04/24 03:26:13;;;;;;;;;;;;;;;-144.99;96.69;52301.34;4960893;28;19970;-75
2023/04/24 03:28:40;;;;;;;;;;;;;;;-144.99;97.83;52293.19;4970352;28;19970;-74
2023/04/24 03:31:07;;;;;;;;;;;;;;;-144.99;98.32;52309.50;4963137;28;19926;-74
2023/04/24 03:33:33;;;;;;;;;;;;;;;-144.99;98.61;52301.34;4967234;28;19926;-74
2023/04/24 03:36:00;;;;;;;;;;;;;;;-144.99;99.10;52317.66;4969862;28;20007;-74
2023/04/24 03:38:26;;;;;;;;;;;;;;;-144.99;99.38;52280.97;4963982;28;19941;-74
2023/04/24 03:40:54;;;;;;;;;;;;;;;-144.99;99.41;52278.91;4967733;28;20002;-73
2023/04/24 03:43:20;;;;;;;;;;;;;;;-144.99;97.65;52305.41;4962565;28;19962;-74
2023/04/24 03:45:47;;;;;;;;;;;;;;;-144.99;100.00;52313.56;4966995;28;19983;-76
2023/04/24 03:48:13;;;;;;;;;;;;;;;-144.99;100.00;52317.66;4997796;28;20028;-75
2023/04/24 03:50:40;;;;;;;;;;;;;;;-144.99;99.69;52317.66;4974047;28;19987;-73
2023/04/24 03:53:06;;;;;;;;;;;;;;;-144.99;99.76;52313.56;4978191;28;19997;-75
2023/04/24 03:55:33;;;;;;;;;;;;;;;-144.99;99.74;52329.88;4965972;28;19958;-73
2023/04/24 03:58:01;;;;;;;;;;;;;;;-144.99;100.00;52289.13;4984129;28;19962;-73
2023/04/24 04:00:27;;;;;;;;;;;;;;;-144.99;100.00;52309.50;4983744;28;20385;-73
2023/04/24 04:02:54;;;;;;;;;;;;;;;-144.99;100.00;52311.53;4984651;28;20513;-74
2023/04/24 04:05:22;;;;;;;;;;;;;;;-144.99;100.00;52321.72;4969413;28;19995;-74
2023/04/24 04:07:49;;;;;;;;;;;;;;;-144.99;99.01;52303.38;4964951;28;19970;-74
2023/04/24 04:10:17;;;;;;;;;;;;;;;-144.99;99.65;52325.81;4963784;28;20408;-73
2023/04/24 04:12:43;;;;;;;;;;;;;;;-144.99;100.00;52309.50;4966430;28;19963;-74
2023/04/24 04:15:11;;;;;;;;;;;;;;;-144.99;99.58;52297.25;4966056;28;20386;-73
2023/04/24 04:17:38;;;;;;;;;;;;;;;-144.99;98.45;52309.50;4973270;28;19962;-75
2023/04/24 04:20:09;;;;;;;;;;;;;;;-144.99;98.38;52293.19;4971490;28;19940;-75
2023/04/24 04:22:36;;;;;;;;;;;;;;;-144.99;98.71;52325.81;4961671;28;20312;-75
2023/04/24 04:25:02;;;;;;;;;;;;;;;-144.99;98.16;52305.41;4958025;28;19940;-75
2023/04/24 04:27:31;;;;;;;;;;;;;;;-144.99;97.92;52301.34;4992967;28;19950;-77
2023/04/24 04:29:59;;;;;;;;;;;;;;;-144.99;98.07;52268.72;4980490;28;19940;-75
2023/04/24 04:32:26;;;;;;;;;;;;;;;-144.99;98.50;52305.41;4965758;28;20367;-74
2023/04/24 04:34:54;;;;;;;;;;;;;;;-144.99;97.40;52321.72;4968955;28;19926;-74
2023/04/24 04:37:20;;;;;;;;;;;;;;;-144.99;98.35;52325.81;4980155;28;20109;-75
2023/04/24 04:39:47;;;;;;;;;;;;;;;-144.99;97.00;52272.81;4974513;28;19937;-75
2023/04/24 04:42:13;;;;;;;;;;;;;;;-144.99;96.72;52305.41;4972250;28;19984;-74
2023/04/24 04:44:40;;;;;;;;;;;;;;;-144.99;96.57;52329.88;4968340;28;20085;-75
2023/04/24 04:47:07;;;;;;;;;;;;;;;-144.99;95.98;52313.56;4968280;28;20543;-75
2023/04/24 04:49:35;;;;;;;;;;;;;;;-144.99;96.20;52264.66;4968706;28;19932;-76
2023/04/24 04:52:02;;;;;;;;;;;;;;;-144.99;95.14;52264.66;4969687;28;19991;-75
2023/04/24 04:54:28;;;;;;;;;;;;;;;-144.99;94.86;52305.41;4980840;28;19965;-74
2023/04/24 04:56:57;;;;;;;;;;;;;;;-144.99;94.58;52313.56;4972445;28;19953;-77
2023/04/24 04:59:23;;;;;;;;;;;;;;;-144.99;94.37;52333.94;4975144;28;19941;-73
2023/04/24 05:01:50;;;;;;;;;;;;;;;-144.99;93.59;52311.53;4972821;28;19945;-73
2023/04/24 05:04:16;;;;;;;;;;;;;;;-144.99;93.03;52325.81;4969920;28;19996;-73
2023/04/24 05:06:44;;;;;;;;;;;;;;;-144.99;91.81;52301.34;4979259;28;19922;-73
2023/04/24 05:09:11;;;;;;;;;;;;;;;-144.99;91.23;52276.88;4984253;28;19926;-72
2023/04/24 05:11:37;;;;;;;;;;;;;;;-144.99;91.39;52293.19;4962251;28;20035;-72
2023/04/24 05:14:04;;;;;;;;;;;;;;;-144.99;90.75;52329.88;4973279;28;20246;-74
2023/04/24 05:16:30;;;;;;;;;;;;;;;-144.99;90.71;52301.34;4271888;28;10000879;-76
2023/04/24 05:18:57;;;;;;;;;;;;;;;-144.99;89.98;52319.69;4958367;28;19972;-75
2023/04/24 05:21:23;;;;;;;;;;;;;;;-144.99;89.85;52313.56;4969809;28;19926;-75
2023/04/24 05:23:51;;;;;;;;;;;;;;;-144.99;89.86;52268.72;4967628;28;19935;-76
2023/04/24 05:26:19;;;;;;;;;;;;;;;-144.99;89.44;52325.81;4975324;28;20232;-75
2023/04/24 05:28:45;;;;;;;;;;;;;;;-144.99;89.74;52295.22;4966380;28;19927;-76
2023/04/24 05:31:12;;;;;;;;;;;;;;;-144.99;89.25;52297.25;4959938;28;19937;-76
2023/04/24 05:33:38;;;;;;;;;;;;;;;-144.99;89.41;52305.41;4952737;28;20017;-75
2023/04/24 05:36:07;;;;;;;;;;;;;;;-144.99;88.45;52287.06;4960274;28;20495;-75
2023/04/24 05:38:33;;;;;;;;;;;;;;;-144.99;88.79;52264.66;4960703;28;19934;-75
2023/04/24 05:41:01;;;;;;;;;;;;;;;-144.99;87.93;52285.03;4957461;28;19966;-75
2023/04/24 05:43:27;;;;;;;;;;;;;;;-144.99;88.11;52258.53;4967463;28;20048;-75
2023/04/24 05:45:57;;;;;;;;;;;;;;;-144.99;87.86;52305.41;4968035;28;19988;-75
2023/04/24 05:48:23;;;;;;;;;;;;;;;-144.99;86.64;52285.03;4967630;28;20001;-75
2023/04/24 05:50:50;;;;;;;;;;;;;;;-144.99;86.54;52313.56;4969359;28;20423;-74
2023/04/24 05:53:17;;;;;;;;;;;;;;;-144.99;86.69;52313.56;4969001;28;19934;-75
2023/04/24 05:55:43;;;;;;;;;;;;;;;-144.99;86.72;52309.50;4965336;28;19962;-74
2023/04/24 05:58:11;;;;;;;;;;;;;;;-144.99;85.82;52297.25;4956799;28;20401;-74
2023/04/24 06:00:39;;;;;;;;;;;;;;;-144.99;85.93;52289.13;4964029;28;19934;-74
2023/04/24 06:03:06;;;;;;;;;;;;;;;-144.99;85.08;52280.97;4961468;28;19973;-74
2023/04/24 06:05:32;;;;;;;;;;;;;;;-144.99;84.78;52289.13;4968797;28;19926;-75
2023/04/24 06:07:59;;;;;;;;;;;;;;;-144.99;85.17;52285.03;4969689;28;19973;-75
2023/04/24 06:10:26;;;;;;;;;;;;;;;-144.99;84.63;52297.25;4958778;28;19970;-75
2023/04/24 06:12:56;;;;;;;;;;;;;;;-144.99;84.33;52264.66;4966614;28;20025;-75
2023/04/24 06:15:23;;;;;;;;;;;;;;;-144.99;83.80;52333.94;4965837;28;19926;-75
2023/04/24 06:17:50;;;;;;;;;;;;;;;-144.99;84.09;52293.19;4968744;28;19973;-76
2023/04/24 06:20:16;;;;;;;;;;;;;;;-144.99;83.38;52297.25;4968780;28;19986;-75
2023/04/24 06:22:43;;;;;;;;;;;;;;;-144.99;83.51;52291.16;4959801;28;19930;-76
2023/04/24 06:25:09;;;;;;;;;;;;;;;-144.99;83.35;52276.88;4967446;28;20534;-75
2023/04/24 06:27:36;;;;;;;;;;;;;;;-144.99;83.41;52313.56;4986166;28;19922;-76
2023/04/24 06:30:02;;;;;;;;;;;;;;;-144.99;83.57;52293.19;4985334;28;19926;-75
2023/04/24 06:32:31;;;;;;;;;;;;;;;-144.99;81.79;52264.66;4966956;28;19926;-74
2023/04/24 06:34:58;;;;;;;;;;;;;;;-144.99;81.95;52266.69;4971014;28;19953;-75
2023/04/24 06:37:24;;;;;;;;;;;;;;;-144.99;82.80;52260.56;4967576;28;19978;-74
2023/04/24 06:39:51;;;;;;;;;;;;;;;-144.99;82.91;52285.03;4970651;28;19933;-74
2023/04/24 06:42:17;;;;;;;;;;;;;;;-144.99;82.98;52313.56;4619532;28;10000019;-75
2023/04/24 06:44:44;;;;;;;;;;;;;;;-144.99;82.73;52313.56;4971435;28;19933;-75
2023/04/24 06:47:13;;;;;;;;;;;;;;;-144.99;82.60;52276.88;4962373;28;19934;-75
2023/04/24 06:49:41;;;;;;;;;;;;;;;-144.99;83.04;52301.34;4968471;28;19934;-76
2023/04/24 06:52:07;;;;;;;;;;;;;;;-144.99;82.82;52301.34;4981986;28;20389;-75
2023/04/24 06:54:34;;;;;;;;;;;;;;;-144.99;83.04;52311.53;4970154;28;19970;-75
2023/04/24 06:57:02;;;;;;;;;;;;;;;-144.99;83.49;52291.16;4971171;28;20400;-75
2023/04/24 06:59:29;;;;;;;;;;;;;;;-144.99;83.39;52301.34;4961343;28;19958;-75
2023/04/24 07:01:55;;;;;;;;;;;;;;;-144.99;83.50;52293.19;4966175;28;19989;-74
2023/04/24 07:04:22;;;;;;;;;;;;;;;-144.99;83.46;52297.25;4969304;28;19930;-76
2023/04/24 07:06:51;;;;;;;;;;;;;;;-144.99;83.48;52321.72;4963272;28;19930;-75
2023/04/24 07:09:18;;;;;;;;;;;;;;;-144.99;83.58;52295.22;4978689;28;19926;-75
2023/04/24 07:11:45;;;;;;;;;;;;;;;-144.99;83.04;52293.19;4960115;28;20460;-74
2023/04/24 07:14:11;;;;;;;;;;;;;;;-144.99;82.17;52280.97;4970807;28;19930;-76
2023/04/24 07:16:38;;;;;;;;;;;;;;;-144.99;81.65;52252.44;4960976;28;20057;-75
2023/04/24 07:19:05;;;;;;;;;;;;;;;-144.99;81.56;52260.56;4961363;28;20012;-74
2023/04/24 07:21:32;;;;;;;;;;;;;;;-144.99;81.27;52285.03;4961760;28;19937;-75
2023/04/24 07:24:00;;;;;;;;;;;;;;;-144.99;81.21;52256.50;4962427;28;20460;-75
2023/04/24 07:26:26;;;;;;;;;;;;;;;-144.99;80.53;52252.44;4966984;28;20029;-75
2023/04/24 07:28:53;;;;;;;;;;;;;;;-144.99;78.61;52244.28;4963360;28;19937;-75
2023/04/24 07:31:20;;;;;;;;;;;;;;;-144.99;79.44;52305.41;4960104;28;20460;-73
2023/04/24 07:33:46;;;;;;;;;;;;;;;-144.99;79.91;52256.50;4970365;28;19984;-75
2023/04/24 07:36:16;;;;;;;;;;;;;;;-144.99;80.66;52297.25;4970020;28;20001;-74
2023/04/24 07:38:43;;;;;;;;;;;;;;;-144.99;79.80;52285.03;4968441;28;19926;-74
2023/04/24 07:41:11;;;;;;;;;;;;;;;-144.99;80.31;52283.00;4963861;28;20461;-73
2023/04/24 07:43:37;;;;;;;;;;;;;;;-144.99;81.06;52313.56;4970049;28;19981;-75
2023/04/24 07:46:04;;;;;;;;;;;;;;;-144.99;80.82;52256.50;4961360;28;20028;-74
2023/04/24 07:48:30;;;;;;;;;;;;;;;-144.99;81.28;52313.56;4977374;28;19937;-75
2023/04/24 07:50:57;;;;;;;;;;;;;;;-144.99;81.24;52293.19;4975812;28;20413;-74
2023/04/24 07:53:23;;;;;;;;;;;;;;;-144.99;81.30;52289.13;4974892;28;19993;-74
2023/04/24 07:55:50;;;;;;;;;;;;;;;-144.99;80.28;52276.88;4972981;28;19942;-74
2023/04/24 07:58:17;;;;;;;;;;;;;;;-144.99;82.17;52278.91;4976109;28;20009;-74
2023/04/24 08:00:44;;;;;;;;;;;;;;;-144.99;81.61;52301.34;4974791;28;19993;-74
2023/04/24 08:03:12;;;;;;;;;;;;;;;-144.99;81.40;52262.63;4962962;28;20082;-74
2023/04/24 08:05:38;;;;;;;;;;;;;;;-144.99;81.98;52299.31;4962757;28;19951;-74
2023/04/24 08:08:05;;;;;;;;;;;;;;;-144.99;81.76;52297.25;4966210;28;20546;-74
2023/04/24 08:10:31;;;;;;;;;;;;;;;-144.99;81.72;52289.13;4958530;28;19985;-73
2023/04/24 08:12:58;;;;;;;;;;;;;;;-144.99;80.83;52268.72;4958258;28;19935;-74
2023/04/24 08:15:26;;;;;;;;;;;;;;;-144.99;81.97;52297.25;4962040;28;20360;-73
2023/04/24 08:17:52;;;;;;;;;;;;;;;-144.99;82.20;52291.16;4980884;28;19930;-74
2023/04/24 08:20:19;;;;;;;;;;;;;;;-144.99;82.91;52297.25;4962312;28;20220;-74
2023/04/24 08:22:47;;;;;;;;;;;;;;;-144.99;84.13;52313.56;4963152;28;19930;-74
2023/04/24 08:25:13;;;;;;;;;;;;;;;-144.99;83.43;52321.72;4969052;28;20388;-75
2023/04/24 08:27:40;;;;;;;;;;;;;;;-144.99;83.13;52293.19;4968045;28;19993;-74
2023/04/24 08:30:07;;;;;;;;;;;;;;;-144.99;82.04;52301.34;4964428;28;20401;-75
2023/04/24 08:32:35;;;;;;;;;;;;;;;-144.99;81.26;52260.56;4961684;28;20364;-74
2023/04/24 08:35:01;;;;;;;;;;;;;;;-144.99;80.94;52301.34;4960771;28;20054;-75
2023/04/24 08:37:28;;;;;;;;;;;;;;;-144.99;80.37;52301.34;4956399;28;19973;-74
2023/04/24 08:39:55;;;;;;;;;;;;;;;-144.99;81.56;52305.41;4957205;28;20600;-74
2023/04/24 08:42:21;;;;;;;;;;;;;;;-144.99;79.62;52313.56;4963676;28;19962;-74
2023/04/24 08:44:49;;;;;;;;;;;;;;;-144.99;80.54;52280.97;4969349;28;19965;-74
2023/04/24 08:47:16;;;;;;;;;;;;;;;-144.99;79.45;52289.13;4956352;28;20052;-75
2023/04/24 08:49:45;;;;;;;;;;;;;;;-144.99;80.31;52270.78;4967275;28;19930;-75
2023/04/24 08:52:13;;;;;;;;;;;;;;;-144.99;80.51;52297.25;4961429;28;19961;-75
2023/04/24 08:54:40;;;;;;;;;;;;;;;-144.99;80.40;52268.72;4961418;28;20457;-75
2023/04/24 08:57:09;;;;;;;;;;;;;;;-144.99;80.56;52331.91;4974624;28;19988;-74
2023/04/24 08:59:36;;;;;;;;;;;;;;;-144.99;80.83;52309.50;4973591;28;20023;-75
2023/04/24 09:02:03;;;;;;;;;;;;;;;-144.99;80.71;52317.66;4978581;28;19930;-74
2023/04/24 09:04:30;;;;;;;;;;;;;;;-144.99;81.47;52333.94;4976726;28;19973;-74
2023/04/24 09:06:58;;;;;;;;;;;;;;;-144.99;80.91;52295.22;4972797;28;19959;-75
2023/04/24 09:09:25;;;;;;;;;;;;;;;-144.99;80.76;52244.28;4974140;28;20380;-75
2023/04/24 09:11:53;;;;;;;;;;;;;;;-144.99;79.71;52254.47;4961618;28;19933;-75
2023/04/24 09:14:20;;;;;;;;;;;;;;;-144.99;80.00;52264.66;4958991;28;19926;-75
2023/04/24 09:16:46;;;;;;;;;;;;;;;-144.99;78.96;52268.72;4963545;28;20020;-76
2023/04/24 09:19:13;;;;;;;;;;;;;;;-144.99;79.12;52268.72;4959032;28;20444;-76
2023/04/24 09:21:41;;;;;;;;;;;;;;;-144.99;77.99;52248.34;4968593;28;19930;-75
2023/04/24 09:24:17;;;;;;;;;;;;;;;-144.99;78.38;52280.97;4960757;28;19937;-76
2023/04/24 09:26:44;;;;;;;;;;;;;;;-144.99;78.86;52293.19;4964447;28;19991;-76
2023/04/24 09:29:15;;;;;;;;;;;;;;;-144.99;78.70;52315.59;4960312;28;19961;-76
2023/04/24 09:31:41;;;;;;;;;;;;;;;-144.99;79.37;52276.88;4964146;28;19937;-77
2023/04/24 09:34:08;;;;;;;;;;;;;;;-144.99;79.51;52297.25;4961490;28;20006;-77
2023/04/24 09:36:36;;;;;;;;;;;;;;;-144.99;79.94;52301.34;4964611;28;19977;-76
2023/04/24 09:39:04;;;;;;;;;;;;;;;-144.99;80.53;52301.34;4962836;28;19980;-76
2023/04/24 09:41:33;;;;;;;;;;;;;;;-144.99;80.63;52325.81;4958558;28;19930;-75
2023/04/24 09:44:11;;;;;;;;;;;;;;;-144.99;82.23;52338.03;4967410;28;20399;-75
2023/04/24 09:46:38;;;;;;;;;;;;;;;-144.99;83.09;52317.66;4958543;28;20000;-75
2023/04/24 09:49:08;;;;;;;;;;;;;;;-144.99;83.41;52283.00;4965817;28;20626;-75
2023/04/24 09:51:36;;;;;;;;;;;;;;;-144.99;83.59;52280.97;4968304;28;19930;-75
2023/04/24 09:54:03;;;;;;;;;;;;;;;-144.99;82.54;52301.34;4969058;28;19930;-75
2023/04/24 09:56:33;;;;;;;;;;;;;;;-144.99;82.49;52313.56;4970557;28;20021;-75
2023/04/24 09:59:06;;;;;;;;;;;;;;;-144.99;81.63;52264.66;4970712;28;20372;-75
2023/04/24 10:01:33;;;;;;;;;;;;;;;-144.99;81.54;52317.66;4970280;28;19926;-76
2023/04/24 10:04:00;;;;;;;;;;;;;;;-144.99;81.49;52325.81;4968382;28;20245;-76
2023/04/24 10:06:31;;;;;;;;;;;;;;;-144.99;82.06;52289.13;4971972;28;19985;-76
2023/04/24 10:09:01;;;;;;;;;;;;;;;-144.99;81.49;52317.66;4967965;28;19987;-76
2023/04/24 10:11:28;;;;;;;;;;;;;;;-144.99;82.05;52309.50;4970195;28;20707;-75
2023/04/24 10:13:55;;;;;;;;;;;;;;;-144.99;82.48;52272.81;4971138;28;20025;-76
2023/04/24 10:16:23;;;;;;;;;;;;;;;-144.99;82.65;52333.94;4971035;28;20392;-76
2023/04/24 10:18:51;;;;;;;;;;;;;;;-144.99;82.42;52348.22;4970833;28;20001;-76
2023/04/24 10:21:17;;;;;;;;;;;;;;;-144.99;81.44;52276.88;4960898;28;20372;-76
2023/04/24 10:23:46;;;;;;;;;;;;;;;-144.99;80.52;52331.91;4969690;28;19961;-76
2023/04/24 10:26:17;;;;;;;;;;;;;;;-144.99;80.60;52295.22;4970519;28;20237;-76
2023/04/24 10:28:45;;;;;;;;;;;;;;;-144.99;80.55;52317.66;4968195;28;19965;-76
2023/04/24 10:31:12;;;;;;;;;;;;;;;-144.99;80.56;52276.88;4980515;28;19929;-76
2023/04/24 10:33:41;;;;;;;;;;;;;;;-144.99;79.79;52289.13;4970797;28;20024;-76
2023/04/24 10:36:08;;;;;;;;;;;;;;;-144.99;80.77;52319.69;4962562;28;19930;-74
2023/04/24 10:38:36;;;;;;;;;;;;;;;-144.99;79.72;52317.66;4956590;28;20025;-76
2023/04/24 10:41:10;;;;;;;;;;;;;;;-144.99;79.46;52297.25;4969764;28;19973;-76
2023/04/24 10:43:36;;;;;;;;;;;;;;;-144.99;80.08;52321.72;4971559;28;19930;-76
2023/04/24 10:46:03;;;;;;;;;;;;;;;-144.99;80.08;52297.25;4971958;28;19937;-74
2023/04/24 10:48:30;;;;;;;;;;;;;;;-144.99;79.81;52301.34;4966909;28;20027;-75
2023/04/24 10:50:58;;;;;;;;;;;;;;;-144.99;79.83;52346.19;4966232;28;19926;-75
2023/04/24 10:53:28;;;;;;;;;;;;;;;-144.99;80.32;52354.34;4959791;28;20195;-75
2023/04/24 10:55:58;;;;;;;;;;;;;;;-144.99;80.17;52297.25;4970135;28;19926;-74
2023/04/24 10:58:25;;;;;;;;;;;;;;;-144.99;80.25;52323.75;4967741;28;19977;-75
2023/04/24 11:01:01;;;;;;;;;;;;;;;-144.99;80.22;52338.03;4964669;28;19965;-75
2023/04/24 11:03:28;;;;;;;;;;;;;;;-144.99;80.49;52323.75;4964482;28;19977;-76
2023/04/24 11:06:00;;;;;;;;;;;;;;;-144.99;80.28;52321.72;4971173;28;19938;-77
2023/04/24 11:08:28;;;;;;;;;;;;;;;-144.99;80.13;52329.88;4987740;28;19950;-76
2023/04/24 11:10:59;;;;;;;;;;;;;;;-144.99;80.29;52285.03;4970345;28;19981;-74
2023/04/24 11:13:26;;;;;;;;;;;;;;;-144.99;79.73;52338.03;4966775;28;20054;-74
2023/04/24 11:16:07;;;;;;;;;;;;;;;-144.99;80.25;52307.47;4956527;28;19972;-75
2023/04/24 11:18:44;;;;;;;;;;;;;;;-144.99;80.02;52313.56;4967517;28;20029;-75
2023/04/24 11:21:13;;;;;;;;;;;;;;;-144.99;79.87;52309.50;4961071;28;19930;-75
2023/04/24 11:23:40;;;;;;;;;;;;;;;-144.99;79.90;52299.31;4970444;28;19930;-74
2023/04/24 11:26:14;;;;;;;;;;;;;;;-144.99;79.44;52305.41;4962428;28;20004;-74
2023/04/24 11:28:45;;;;;;;;;;;;;;;-144.99;79.84;52297.25;4971183;28;20013;-74
2023/04/24 11:31:30;;;;;;;;;;;;;;;-144.99;79.75;52305.41;4969224;28;20405;-74
2023/04/24 11:33:57;;;;;;;;;;;;;;;-144.99;79.65;52297.25;4981149;28;19937;-75
2023/04/24 11:36:26;;;;;;;;;;;;;;;-144.99;80.27;52317.66;4979896;28;20348;-74
2023/04/24 11:38:52;;;;;;;;;;;;;;;-144.99;79.54;52289.13;4979940;28;20340;-74
2023/04/24 11:41:19;;;;;;;;;;;;;;;-144.99;79.32;52333.94;4968474;28;19930;-74
2023/04/24 11:43:46;;;;;;;;;;;;;;;-144.99;78.94;52354.34;4967940;28;19930;-74
2023/04/24 11:46:13;;;;;;;;;;;;;;;-144.99;80.38;52354.34;4974973;28;20196;-77
2023/04/24 11:48:40;;;;;;;;;;;;;;;-144.99;81.24;52338.03;4992529;28;19957;-75
2023/04/24 11:51:07;;;;;;;;;;;;;;;-144.99;81.08;52272.81;4963057;28;20417;-75
2023/04/24 11:53:37;;;;;;;;;;;;;;;-144.99;80.25;52342.09;4968559;28;19952;-75
2023/04/24 11:56:04;;;;;;;;;;;;;;;-144.99;79.72;52305.41;4972993;28;19981;-75
2023/04/24 11:58:35;;;;;;;;;;;;;;;-144.99;79.44;52331.91;4970705;28;20017;-74
2023/04/24 12:01:02;;;;;;;;;;;;;;;-144.99;79.67;52338.03;4971497;28;19934;-75
2023/04/24 12:03:28;;;;;;;;;;;;;;;-144.99;79.60;52366.56;4961197;28;19977;-74
2023/04/24 12:06:05;;;;;;;;;;;;;;;-144.99;79.41;52321.72;4957059;28;20345;-75
2023/04/24 12:08:32;;;;;;;;;;;;;;;-144.99;79.43;52303.38;4966610;28;20009;-75
2023/04/24 12:11:00;;;;;;;;;;;;;;;-144.99;79.69;52309.50;4964317;28;20001;-75
2023/04/24 12:13:27;;;;;;;;;;;;;;;-144.99;79.94;52350.25;4967950;28;19945;-75
2023/04/24 12:15:53;;;;;;;;;;;;;;;-144.99;78.13;52299.31;4960660;28;19985;-74
2023/04/24 12:18:22;;;;;;;;;;;;;;;-144.99;77.87;52285.03;4959568;28;19993;-75
2023/04/24 12:20:49;;;;;;;;;;;;;;;-144.99;77.67;52293.19;4961033;28;20080;-73
2023/04/24 12:23:15;;;;;;;;;;;;;;;-144.99;77.76;52287.06;4969015;28;19961;-75